Time;durP1;ratioP1;P1;durP2;ratioP2;P2;SDS_P1;SDS_P2;PMS_P1;PMS_P2;Temp;Humidity;BMP_temperature;BMP_pressure;BME280_temperature;BME280_humidity;BME280_pressure;Samples;Min_cycle;Max_cycle;Signal;HPM_P1;HPM_P2
2021/05/17 00:01:20;;;;;;;6.95;4.18;;;10.70;99.90;;;;;;5055527;28;20101;-78
2021/05/17 00:03:51;;;;;;;7.50;4.35;;;10.70;99.90;;;;;;5056527;28;20458;-78
2021/05/17 00:06:18;;;;;;;6.03;4.10;;;10.70;99.90;;;;;;5055541;28;20543;-77
2021/05/17 00:08:46;;;;;;;6.25;3.80;;;10.70;99.90;;;;;;5055476;28;20497;-78
2021/05/17 00:11:13;;;;;;;7.85;4.55;;;10.70;99.90;;;;;;5054962;28;20171;-78
2021/05/17 00:13:40;;;;;;;7.78;4.13;;;10.70;99.90;;;;;;5055555;28;20052;-78
2021/05/17 00:16:07;;;;;;;6.03;3.78;;;10.70;99.90;;;;;;5055184;28;20135;-76
2021/05/17 00:18:34;;;;;;;4.93;3.70;;;10.70;99.90;;;;;;5054968;28;20049;-78
2021/05/17 00:21:00;;;;;;;4.82;3.50;;;10.80;99.90;;;;;;5055330;28;20192;-79
2021/05/17 00:23:27;;;;;;;5.22;3.10;;;10.80;99.90;;;;;;5055324;28;20049;-78
2021/05/17 00:25:55;;;;;;;5.50;3.42;;;10.90;99.90;;;;;;5055170;28;20084;-78
2021/05/17 00:28:22;;;;;;;5.15;3.38;;;10.90;99.90;;;;;;5054465;28;20049;-77
2021/05/17 00:30:49;;;;;;;4.22;2.83;;;10.90;99.90;;;;;;5055165;28;20102;-79
2021/05/17 00:33:15;;;;;;;4.18;3.10;;;11.00;99.90;;;;;;5054859;28;20078;-79
2021/05/17 00:35:42;;;;;;;4.20;2.92;;;11.00;99.90;;;;;;5054597;28;20049;-78
2021/05/17 00:38:09;;;;;;;4.63;2.95;;;11.00;99.90;;;;;;5054503;28;20728;-78
2021/05/17 00:40:35;;;;;;;6.68;3.20;;;11.10;99.90;;;;;;5054679;28;20051;-79
2021/05/17 00:43:07;;;;;;;3.03;2.72;;;11.20;99.90;;;;;;5054893;28;20077;-79
2021/05/17 00:45:33;;;;;;;5.35;3.10;;;11.20;99.90;;;;;;5055321;28;20057;-80
2021/05/17 00:48:01;;;;;;;7.20;2.95;;;11.20;99.90;;;;;;5055591;28;20128;-78
2021/05/17 00:50:28;;;;;;;7.07;3.03;;;11.30;99.90;;;;;;5055574;28;20144;-79
2021/05/17 00:52:56;;;;;;;5.55;2.78;;;11.30;99.90;;;;;;5055888;28;20127;-77
2021/05/17 00:55:24;;;;;;;4.97;2.90;;;11.40;99.90;;;;;;5056049;28;20132;-78
2021/05/17 00:57:51;;;;;;;4.25;3.05;;;11.30;99.90;;;;;;5055404;28;20076;-80
2021/05/17 01:00:23;;;;;;;6.07;3.40;;;11.40;99.90;;;;;;5055073;28;20128;-79
2021/05/17 01:02:50;;;;;;;4.55;3.50;;;11.40;99.90;;;;;;5054473;28;20049;-78
2021/05/17 01:05:16;;;;;;;8.77;3.10;;;11.30;99.90;;;;;;5054270;28;20137;-78
2021/05/17 01:07:46;;;;;;;7.50;3.40;;;11.30;99.90;;;;;;5053237;28;20128;-79
2021/05/17 01:10:15;;;;;;;5.03;3.20;;;11.30;99.90;;;;;;5054031;28;20045;-79
2021/05/17 01:12:45;;;;;;;3.67;3.10;;;11.30;99.90;;;;;;5055808;28;20060;-79
2021/05/17 01:15:13;;;;;;;6.28;2.78;;;11.30;99.90;;;;;;5055817;28;20057;-80
2021/05/17 01:17:41;;;;;;;5.07;2.72;;;11.40;99.90;;;;;;5055866;28;20475;-80
2021/05/17 01:20:10;;;;;;;3.40;2.85;;;11.40;99.90;;;;;;5056279;28;20056;-81
2021/05/17 01:22:50;;;;;;;5.38;2.50;;;11.40;99.90;;;;;;5054670;28;20053;-79
2021/05/17 01:25:19;;;;;;;4.45;2.72;;;11.40;99.90;;;;;;5054410;28;20059;-79
2021/05/17 01:27:46;;;;;;;5.68;2.83;;;11.40;99.90;;;;;;5063388;28;20087;-82
2021/05/17 01:30:14;;;;;;;7.78;2.83;;;11.50;99.90;;;;;;5076052;28;20072;-80
2021/05/17 01:32:42;;;;;;;3.05;2.65;;;11.50;99.90;;;;;;5076404;28;20072;-83
2021/05/17 01:35:10;;;;;;;4.20;2.85;;;11.40;99.90;;;;;;5058990;28;20193;-79
2021/05/17 01:37:41;;;;;;;6.25;3.00;;;11.40;99.90;;;;;;5054957;28;20098;-82
2021/05/17 01:40:10;;;;;;;4.70;3.38;;;11.40;99.90;;;;;;5054770;28;20520;-80
2021/05/17 01:42:40;;;;;;;4.70;2.97;;;11.40;99.90;;;;;;5054568;28;20045;-79
2021/05/17 01:45:09;;;;;;;4.45;3.00;;;11.30;99.90;;;;;;5053214;28;20095;-79
2021/05/17 01:47:39;;;;;;;5.05;3.08;;;11.30;99.90;;;;;;5054433;28;20580;-78
2021/05/17 01:50:07;;;;;;;4.03;2.90;;;11.30;99.90;;;;;;5056980;28;20555;-79
2021/05/17 01:52:35;;;;;;;3.53;2.65;;;11.30;99.90;;;;;;5053375;28;20056;-78
2021/05/17 01:55:04;;;;;;;3.42;2.53;;;11.30;99.90;;;;;;5052719;28;20136;-77
2021/05/17 01:57:31;;;;;;;3.20;2.85;;;11.30;99.90;;;;;;5052721;28;20052;-78
2021/05/17 01:59:58;;;;;;;8.15;3.08;;;11.30;99.90;;;;;;5052420;28;20480;-79
2021/05/17 02:02:25;;;;;;;4.70;2.80;;;11.40;99.90;;;;;;5056213;28;20056;-80
2021/05/17 02:04:53;;;;;;;4.30;2.85;;;11.40;99.90;;;;;;5056380;28;20175;-79
2021/05/17 02:07:20;;;;;;;8.10;2.95;;;11.40;99.90;;;;;;5051792;28;20053;-79
2021/05/17 02:09:52;;;;;;;3.63;2.70;;;11.40;99.90;;;;;;5052459;28;20048;-78
2021/05/17 02:12:22;;;;;;;6.30;2.77;;;11.50;99.90;;;;;;5052708;28;20521;-80
2021/05/17 02:14:51;;;;;;;3.92;2.70;;;11.50;99.90;;;;;;5054319;28;20317;-78
2021/05/17 02:17:19;;;;;;;4.68;2.60;;;11.50;99.90;;;;;;5052533;28;20056;-79
2021/05/17 02:19:47;;;;;;;5.28;3.00;;;11.40;99.90;;;;;;5055391;28;20049;-80
2021/05/17 02:22:16;;;;;;;4.07;2.65;;;11.40;99.90;;;;;;5053192;28;20055;-78
2021/05/17 02:24:44;;;;;;;5.10;3.00;;;11.50;99.90;;;;;;5052445;28;20100;-79
2021/05/17 02:27:11;;;;;;;2.75;2.47;;;11.50;99.90;;;;;;5052186;28;20052;-79
2021/05/17 02:29:37;;;;;;;5.47;2.88;;;11.50;99.90;;;;;;5055272;28;20119;-80
2021/05/17 02:32:04;;;;;;;4.20;2.58;;;11.50;99.90;;;;;;5057963;28;20064;-81
2021/05/17 02:34:32;;;;;;;3.58;2.80;;;11.50;99.90;;;;;;5059090;28;20048;-80
2021/05/17 02:36:59;;;;;;;5.00;2.92;;;11.50;99.90;;;;;;5057089;28;20052;-81
2021/05/17 02:39:26;;;;;;;5.35;2.70;;;11.50;99.90;;;;;;5054917;28;20087;-80
2021/05/17 02:41:54;;;;;;;3.03;2.33;;;11.50;99.90;;;;;;5056071;28;20186;-80
2021/05/17 02:44:21;;;;;;;4.45;2.63;;;11.50;99.90;;;;;;5057169;28;20105;-81
2021/05/17 02:46:51;;;;;;;3.60;2.65;;;11.50;99.90;;;;;;5054247;28;20049;-79
2021/05/17 02:49:18;;;;;;;2.90;2.58;;;11.50;99.90;;;;;;5052821;28;20060;-79
2021/05/17 02:51:45;;;;;;;4.57;2.53;;;11.50;99.90;;;;;;5053071;28;20099;-78
2021/05/17 02:54:30;;;;;;;3.95;2.72;;;11.50;99.90;;;;;;5052154;28;20099;-78
2021/05/17 02:57:08;;;;;;;3.95;2.55;;;11.50;99.90;;;;;;5051928;28;20102;-78
2021/05/17 03:00:12;;;;;;;3.53;2.65;;;11.50;99.90;;;;;;5051592;28;20045;-79
2021/05/17 03:02:53;;;;;;;3.58;2.63;;;11.40;99.90;;;;;;5015709;28;20053;-78
2021/05/17 03:05:20;;;;;;;3.65;2.83;;;11.30;99.90;;;;;;5051684;28;20522;-79
2021/05/17 03:07:52;;;;;;;4.05;3.15;;;11.30;99.90;;;;;;5051777;28;20049;-78
2021/05/17 03:10:20;;;;;;;;;;;11.30;99.90;;;;;;5052820;28;20053;-79
2021/05/17 03:12:48;;;;;;;4.70;3.08;;;11.30;99.90;;;;;;5052293;28;20007;-79
2021/05/17 03:15:14;;;;;;;5.20;2.80;;;11.20;99.90;;;;;;5051609;28;20186;-79
2021/05/17 03:17:42;;;;;;;4.55;3.10;;;11.20;99.90;;;;;;5051368;28;20421;-80
2021/05/17 03:20:08;;;;;;;3.88;3.13;;;11.30;99.90;;;;;;5054386;28;20049;-81
2021/05/17 03:22:35;;;;;;;4.65;3.20;;;11.30;99.90;;;;;;5056223;28;20099;-78
2021/05/17 03:25:06;;;;;;;4.30;3.00;;;11.30;99.90;;;;;;5056012;28;20135;-78
2021/05/17 03:27:33;;;;;;;5.93;3.42;;;11.30;99.90;;;;;;5055122;28;20059;-81
2021/05/17 03:29:59;;;;;;;6.57;3.28;;;11.20;99.90;;;;;;5056100;28;20127;-79
2021/05/17 03:32:26;;;;;;;4.28;3.28;;;11.20;99.90;;;;;;5057170;28;20048;-79
2021/05/17 03:34:53;;;;;;;4.03;3.08;;;11.20;99.90;;;;;;5059491;28;20049;-79
2021/05/17 03:37:20;;;;;;;4.70;3.13;;;11.20;99.90;;;;;;5059523;28;20108;-79
2021/05/17 03:39:48;;;;;;;4.72;3.10;;;11.20;99.90;;;;;;5057125;28;20049;-77
2021/05/17 03:42:24;;;;;;;4.03;3.40;;;11.20;99.90;;;;;;5078810;23;20060;-80
2021/05/17 03:44:53;;;;;;;3.85;2.95;;;11.20;99.90;;;;;;5059700;28;20053;-80
2021/05/17 03:47:24;;;;;;;4.85;3.25;;;11.20;99.90;;;;;;5061092;28;20114;-80
2021/05/17 03:49:51;;;;;;;6.03;3.20;;;11.20;99.90;;;;;;5059760;28;20076;-81
2021/05/17 03:52:20;;;;;;;6.00;3.33;;;11.10;99.90;;;;;;5060339;28;20223;-80
2021/05/17 03:54:47;;;;;;;5.15;3.20;;;11.10;99.90;;;;;;5060765;28;20059;-81
2021/05/17 03:57:13;;;;;;;3.83;3.28;;;11.00;99.90;;;;;;5060391;28;20401;-81
2021/05/17 03:59:45;;;;;;;3.97;3.58;;;11.10;99.90;;;;;;5063112;28;20099;-81
2021/05/17 04:02:16;;;;;;;4.32;3.20;;;11.10;99.90;;;;;;5063251;28;20088;-80
2021/05/17 04:04:48;;;;;;;4.45;3.40;;;11.10;99.90;;;;;;5065641;28;20056;-83
2021/05/17 04:07:28;;;;;;;5.55;3.10;;;11.00;99.90;;;;;;5070124;28;20112;-80
2021/05/17 04:15:24;;;;;;;4.28;3.50;;;11.20;99.90;;;;;;5065670;28;20064;-81
2021/05/17 04:17:51;;;;;;;6.20;3.92;;;11.20;99.90;;;;;;5064367;28;20053;-79
2021/05/17 04:20:17;;;;;;;6.47;3.55;;;11.20;99.90;;;;;;5064796;28;20052;-81
2021/05/17 04:22:43;;;;;;;4.93;3.40;;;11.30;99.90;;;;;;5062686;28;20109;-81
2021/05/17 04:25:11;;;;;;;6.55;3.70;;;11.30;99.90;;;;;;5069999;28;20053;-81
2021/05/17 04:27:38;;;;;;;6.70;3.85;;;11.40;99.90;;;;;;5061685;28;20110;-81
2021/05/17 04:30:05;;;;;;;4.75;3.58;;;11.40;99.90;;;;;;5061526;28;20045;-80
2021/05/17 04:32:33;;;;;;;6.13;3.78;;;11.40;99.90;;;;;;5061693;28;20068;-81
2021/05/17 04:34:59;;;;;;;8.05;3.80;;;11.50;99.90;;;;;;5062586;28;20053;-83
2021/05/17 04:37:26;;;;;;;4.90;3.53;;;11.50;99.90;;;;;;5067747;28;20080;-82
2021/05/17 04:39:52;;;;;;;5.78;3.63;;;11.60;99.90;;;;;;5065568;28;20135;-80
2021/05/17 04:42:19;;;;;;;6.13;3.50;;;11.70;99.90;;;;;;5061443;28;20083;-79
2021/05/17 04:44:45;;;;;;;4.90;3.50;;;11.80;99.90;;;;;;5065682;28;20478;-79
2021/05/17 04:47:12;;;;;;;5.60;3.80;;;11.80;99.90;;;;;;5068624;28;20056;-81
2021/05/17 04:49:39;;;;;;;4.78;3.45;;;11.90;99.90;;;;;;5063498;28;20068;-82
2021/05/17 04:52:06;;;;;;;5.82;3.90;;;11.90;99.90;;;;;;5061781;28;20073;-80
2021/05/17 04:54:32;;;;;;;4.95;3.25;;;12.00;99.90;;;;;;5061751;28;20080;-81
2021/05/17 04:56:59;;;;;;;4.85;3.20;;;12.00;99.90;;;;;;5059504;28;20087;-81
2021/05/17 04:59:25;;;;;;;4.13;3.00;;;12.10;99.90;;;;;;5060349;28;20070;-81
2021/05/17 05:01:52;;;;;;;6.72;3.72;;;12.10;99.90;;;;;;5060122;28;20528;-81
2021/05/17 05:04:18;;;;;;;5.97;3.50;;;12.10;99.90;;;;;;5061523;28;20041;-81
2021/05/17 05:06:46;;;;;;;5.35;3.63;;;12.10;99.90;;;;;;5065597;28;20049;-81
2021/05/17 05:09:12;;;;;;;6.65;3.70;;;12.10;99.90;;;;;;5060388;28;20064;-81
2021/05/17 05:11:38;;;;;;;5.53;3.40;;;12.00;99.90;;;;;;5061005;28;20126;-83
2021/05/17 05:14:05;;;;;;;4.80;3.42;;;12.10;99.90;;;;;;5063388;28;20098;-82
2021/05/17 05:16:32;;;;;;;5.28;3.85;;;12.00;99.90;;;;;;5063152;28;20101;-84
2021/05/17 05:18:59;;;;;;;4.65;3.63;;;12.00;99.90;;;;;;5062847;28;20068;-84
2021/05/17 05:21:25;;;;;;;6.18;3.88;;;12.00;99.90;;;;;;5062030;28;20072;-82
2021/05/17 05:23:52;;;;;;;6.40;3.80;;;12.00;99.90;;;;;;5061009;28;20127;-83
2021/05/17 05:29:17;;;;;;;4.95;3.50;;;12.10;99.90;;;;;;5061641;28;20037;-84
2021/05/17 05:31:49;;;;;;;9.82;3.33;;;12.10;99.90;;;;;;5059744;28;20052;-80
2021/05/17 05:34:15;;;;;;;5.63;3.10;;;12.20;99.90;;;;;;5061938;28;20071;-82
2021/05/17 05:36:41;;;;;;;5.97;3.10;;;12.20;99.90;;;;;;5061319;28;20068;-81
2021/05/17 05:39:09;;;;;;;5.68;3.30;;;12.30;99.90;;;;;;5063597;28;20041;-82
2021/05/17 05:41:35;;;;;;;6.43;3.33;;;12.30;99.90;;;;;;5061611;28;20055;-80
2021/05/17 05:44:02;;;;;;;5.97;3.30;;;12.40;99.90;;;;;;5062574;28;20056;-81
2021/05/17 05:46:29;;;;;;;5.10;3.20;;;12.50;99.90;;;;;;5059751;28;20088;-81
2021/05/17 05:48:57;;;;;;;8.27;3.13;;;12.70;99.90;;;;;;5058679;28;20053;-80
2021/05/17 05:51:28;;;;;;;5.32;2.88;;;12.90;99.90;;;;;;5058544;28;20049;-80
2021/05/17 05:53:55;;;;;;;6.18;3.38;;;13.00;99.90;;;;;;5056734;28;20098;-79
2021/05/17 05:56:22;;;;;;;5.70;2.88;;;13.10;99.90;;;;;;5055751;28;20688;-80
2021/05/17 05:58:49;;;;;;;5.90;3.30;;;13.20;99.90;;;;;;5056428;28;20490;-79
2021/05/17 06:01:16;;;;;;;4.50;2.50;;;13.30;99.90;;;;;;5054961;28;20445;-79
2021/05/17 06:03:42;;;;;;;5.68;3.22;;;13.40;99.90;;;;;;5055011;28;20080;-79
2021/05/17 06:06:09;;;;;;;4.75;3.00;;;13.40;99.90;;;;;;5056747;28;20048;-79
2021/05/17 06:08:36;;;;;;;7.05;3.25;;;13.40;99.90;;;;;;5056398;28;20173;-79
2021/05/17 06:11:03;;;;;;;5.78;2.90;;;13.50;99.90;;;;;;5055896;28;20045;-80
2021/05/17 06:13:32;;;;;;;5.05;2.90;;;13.50;99.90;;;;;;5052128;28;20099;-79
2021/05/17 06:15:59;;;;;;;6.85;3.10;;;13.50;99.90;;;;;;5054409;28;20557;-78
2021/05/17 06:18:26;;;;;;;6.18;2.97;;;13.50;99.90;;;;;;5075022;28;20139;-78
2021/05/17 06:20:54;;;;;;;4.45;2.85;;;13.50;99.90;;;;;;5075751;28;20091;-79
2021/05/17 06:23:21;;;;;;;3.08;2.58;;;13.40;99.90;;;;;;5076896;28;20076;-81
2021/05/17 06:25:49;;;;;;;4.60;3.00;;;13.30;99.90;;;;;;5077521;28;20048;-79
2021/05/17 06:28:19;;;;;;;3.63;3.13;;;13.20;99.90;;;;;;5076774;28;20054;-80
2021/05/17 06:30:50;;;;;;;5.85;3.10;;;13.30;99.90;;;;;;5076702;28;20079;-82
2021/05/17 06:33:19;;;;;;;7.78;2.90;;;13.30;99.90;;;;;;5076167;28;20105;-79
2021/05/17 06:35:46;;;;;;;4.25;2.70;;;13.40;99.90;;;;;;5077199;28;20048;-80
2021/05/17 06:38:13;;;;;;;7.95;2.95;;;13.40;99.90;;;;;;5074758;28;20492;-80
2021/05/17 06:40:39;;;;;;;7.63;2.75;;;13.50;99.90;;;;;;5073430;28;20098;-79
2021/05/17 06:43:06;;;;;;;7.95;2.92;;;13.50;99.90;;;;;;5074571;28;20132;-80
2021/05/17 06:45:33;;;;;;;5.05;2.90;;;13.60;99.90;;;;;;5071280;28;20109;-79
2021/05/17 06:48:01;;;;;;;7.95;2.90;;;13.70;99.90;;;;;;5074801;28;20080;-79
2021/05/17 06:50:28;;;;;;;4.82;2.75;;;13.80;99.90;;;;;;5078132;28;20513;-79
2021/05/17 06:52:55;;;;;;;7.82;3.30;;;14.00;99.90;;;;;;5079945;28;20048;-79
2021/05/17 06:55:26;;;;;;;4.80;2.97;;;14.10;99.90;;;;;;5089754;28;20052;-80
2021/05/17 06:58:05;;;;;;;3.53;2.42;;;14.30;99.90;;;;;;5081225;28;20052;-79
2021/05/17 07:00:33;;;;;;;8.25;2.85;;;14.40;99.90;;;;;;5066037;28;20109;-80
2021/05/17 07:03:01;;;;;;;6.25;2.83;;;14.60;99.90;;;;;;5064568;28;20111;-79
2021/05/17 07:05:31;;;;;;;6.55;2.88;;;14.90;99.90;;;;;;5060376;28;20053;-79
2021/05/17 07:13:24;;;;;;;4.80;1.83;;;15.80;99.90;;;;;;5061844;28;20140;-80
2021/05/17 07:15:51;;;;;;;7.90;2.53;;;15.80;99.90;;;;;;5060909;28;20091;-79
2021/05/17 07:18:18;;;;;;;7.15;1.98;;;15.60;99.90;;;;;;5061648;28;20060;-78
2021/05/17 07:23:39;;;;;;;6.80;2.72;;;15.80;99.90;;;;;;5061559;28;20060;-78
2021/05/17 07:26:08;;;;;;;3.50;2.03;;;16.40;99.90;;;;;;5062264;28;20055;-79
2021/05/17 07:28:35;;;;;;;6.22;2.50;;;16.50;99.90;;;;;;5062232;28;20099;-80
2021/05/17 07:31:04;;;;;;;5.93;2.42;;;16.60;99.90;;;;;;5061645;28;20118;-79
2021/05/17 07:33:32;;;;;;;3.53;2.42;;;16.70;99.90;;;;;;5061606;28;20053;-79
2021/05/17 07:36:02;;;;;;;4.68;2.33;;;16.60;99.90;;;;;;5059293;28;20041;-80
2021/05/17 07:38:30;;;;;;;3.00;2.28;;;16.50;99.90;;;;;;5061021;28;20129;-79
2021/05/17 07:40:58;;;;;;;5.88;2.25;;;16.30;99.90;;;;;;5060569;28;20045;-78
2021/05/17 07:43:24;;;;;;;3.28;2.00;;;16.10;99.90;;;;;;5059085;28;20056;-78
2021/05/17 07:45:52;;;;;;;6.10;2.00;;;16.10;99.90;;;;;;5060946;28;20117;-80
2021/05/17 07:48:19;;;;;;;4.88;1.92;;;16.20;99.90;;;;;;5062849;28;20060;-79
2021/05/17 07:50:47;;;;;;;7.03;2.42;;;16.00;99.90;;;;;;5062339;28;20056;-78
2021/05/17 07:53:13;;;;;;;5.53;1.98;;;16.00;99.90;;;;;;5062963;28;20072;-79
2021/05/17 07:55:41;;;;;;;5.40;2.47;;;16.20;99.90;;;;;;5060517;28;20080;-79
2021/05/17 07:58:07;;;;;;;4.80;1.83;;;16.20;99.90;;;;;;5060094;28;20052;-78
2021/05/17 08:00:34;;;;;;;5.38;2.15;;;16.20;99.90;;;;;;5059375;28;20054;-79
2021/05/17 08:03:01;;;;;;;4.30;2.15;;;16.30;99.90;;;;;;5060370;28;20056;-76
2021/05/17 08:05:30;;;;;;;2.50;1.85;;;16.20;99.90;;;;;;5056294;28;20126;-78
2021/05/17 08:07:58;;;;;;;5.15;2.13;;;16.30;99.90;;;;;;5054519;28;20053;-78
2021/05/17 08:10:25;;;;;;;3.47;2.10;;;16.30;99.90;;;;;;5054904;28;20488;-77
2021/05/17 08:12:51;;;;;;;5.38;2.00;;;16.30;99.90;;;;;;5053998;28;20140;-77
2021/05/17 08:15:18;;;;;;;4.00;1.90;;;16.20;99.90;;;;;;5052608;28;20139;-76
2021/05/17 08:17:44;;;;;;;2.83;1.98;;;15.80;99.90;;;;;;5053696;28;20060;-76
2021/05/17 08:20:12;;;;;;;3.42;1.67;;;15.50;99.90;;;;;;5054977;28;20049;-76
2021/05/17 08:22:38;;;;;;;3.45;2.00;;;15.30;99.90;;;;;;5055273;28;20132;-79
2021/05/17 08:25:07;;;;;;;4.00;1.75;;;15.20;99.90;;;;;;5053760;28;20083;-77
2021/05/17 08:27:34;;;;;;;4.88;2.28;;;15.10;99.90;;;;;;5054623;28;20045;-77
2021/05/17 08:30:00;;;;;;;4.15;1.90;;;15.00;99.90;;;;;;5053944;28;20080;-77
2021/05/17 08:32:27;;;;;;;4.55;2.10;;;14.90;99.90;;;;;;5054163;28;20045;-78
2021/05/17 08:34:53;;;;;;;3.28;2.17;;;14.90;99.90;;;;;;5055615;28;20227;-77
2021/05/17 08:37:19;;;;;;;2.25;2.00;;;14.90;99.90;;;;;;5053705;28;20094;-77
2021/05/17 08:39:46;;;;;;;4.50;2.22;;;14.70;99.90;;;;;;5052595;28;20079;-77
2021/05/17 08:42:13;;;;;;;5.20;2.20;;;14.60;99.90;;;;;;5052112;28;20436;-78
2021/05/17 08:44:40;;;;;;;4.55;2.33;;;14.60;99.90;;;;;;5053123;28;20114;-78
2021/05/17 08:47:06;;;;;;;5.57;2.58;;;14.60;99.90;;;;;;5055755;28;20428;-80
2021/05/17 08:49:32;;;;;;;2.88;1.58;;;14.70;99.90;;;;;;5056215;28;20070;-79
2021/05/17 08:51:59;;;;;;;4.88;2.10;;;14.70;99.90;;;;;;5057482;28;20127;-80
2021/05/17 08:54:25;;;;;;;4.68;3.30;;;14.70;99.90;;;;;;5057671;28;20064;-79
2021/05/17 08:56:52;;;;;;;2.97;1.80;;;14.80;99.90;;;;;;5056304;28;20084;-80
2021/05/17 08:59:20;;;;;;;5.15;2.25;;;14.90;99.90;;;;;;5057780;28;20556;-80
2021/05/17 09:01:47;;;;;;;2.92;1.98;;;14.90;99.90;;;;;;5065658;28;20068;-79
2021/05/17 09:04:15;;;;;;;4.15;1.80;;;15.00;99.90;;;;;;5074829;28;20045;-79
2021/05/17 09:06:44;;;;;;;4.05;2.13;;;14.90;99.90;;;;;;5075448;28;20052;-79
2021/05/17 09:09:25;;;;;;;4.53;1.88;;;14.90;99.90;;;;;;5058511;28;20107;-78
2021/05/17 09:11:54;;;;;;;2.90;1.67;;;15.20;99.90;;;;;;5052115;28;20520;-78
2021/05/17 09:14:22;;;;;;;2.30;1.73;;;15.30;99.90;;;;;;5052792;28;20052;-78
2021/05/17 09:16:52;;;;;;;2.03;1.48;;;15.60;99.90;;;;;;5050306;28;20182;-77
2021/05/17 09:19:19;;;;;;;3.60;1.90;;;16.00;99.90;;;;;;5055150;28;20037;-78
2021/05/17 09:22:11;;;;;;;3.35;2.13;;;16.30;99.90;;;;;;5054080;28;20572;-78
2021/05/17 09:24:40;;;;;;;3.92;1.83;;;16.20;99.90;;;;;;5051968;28;20081;-78
2021/05/17 09:27:09;;;;;;;2.97;1.35;;;16.00;99.90;;;;;;5053569;28;20084;-78
2021/05/17 09:29:41;;;;;;;6.30;1.73;;;16.00;99.90;;;;;;5053113;28;20094;-79
2021/05/17 09:32:17;;;;;;;2.45;1.38;;;16.50;99.90;;;;;;5053202;28;20041;-78
2021/05/17 09:34:45;;;;;;;3.95;1.67;;;17.30;99.90;;;;;;5050509;28;20045;-79
2021/05/17 09:37:12;;;;;;;5.32;2.47;;;18.20;99.90;;;;;;5052510;28;20117;-79
2021/05/17 09:39:50;;;;;;;2.67;1.70;;;18.30;99.90;;;;;;5055271;28;20045;-79
2021/05/17 09:42:20;;;;;;;3.90;2.13;;;18.20;99.90;;;;;;5055321;28;20049;-80
2021/05/17 09:44:48;;;;;;;6.93;2.17;;;17.80;99.90;;;;;;5050936;28;20080;-79
2021/05/17 09:49:49;;;;;;;4.93;2.03;;;17.80;99.90;;;;;;5075315;22;20065;-83
2021/05/17 09:52:19;;;;;;;5.18;2.40;;;18.20;99.90;;;;;;5048468;28;20041;-81
2021/05/17 09:55:00;;;;;;;6.20;2.55;;;18.30;99.90;;;;;;5060030;28;20056;-82
2021/05/17 09:57:32;;;;;;;5.20;2.22;;;18.10;99.90;;;;;;5061039;28;20117;-81
2021/05/17 10:00:06;;;;;;;5.60;2.47;;;17.90;99.90;;;;;;5061446;28;20390;-80
2021/05/17 10:02:35;;;;;;;3.03;2.17;;;17.80;99.90;;;;;;5060994;28;20113;-80
2021/05/17 10:05:19;;;;;;;8.68;2.58;;;17.60;99.90;;;;;;5046063;28;20060;-80
2021/05/17 10:07:47;;;;;;;3.58;2.50;;;17.20;99.90;;;;;;5046222;28;20124;-80
2021/05/17 10:10:14;;;;;;;8.48;3.35;;;17.00;99.90;;;;;;5046765;28;20129;-81
2021/05/17 10:12:41;;;;;;;3.92;1.90;;;16.60;99.90;;;;;;5056306;28;20041;-80
2021/05/17 10:15:11;;;;;;;3.88;1.90;;;16.60;99.90;;;;;;5058680;28;20064;-80
2021/05/17 10:17:38;;;;;;;3.03;1.83;;;16.70;99.90;;;;;;5054739;28;20053;-81
2021/05/17 10:20:07;;;;;;;4.05;2.05;;;17.00;99.90;;;;;;5061035;28;20481;-81
2021/05/17 10:22:34;;;;;;;3.20;1.58;;;17.30;99.90;;;;;;5061083;28;20103;-80
2021/05/17 10:25:03;;;;;;;4.95;2.08;;;17.00;99.90;;;;;;5060296;28;20049;-80
2021/05/17 10:27:40;;;;;;;3.65;2.33;;;16.50;99.90;;;;;;5061184;28;20099;-81
2021/05/17 10:30:10;;;;;;;2.38;1.05;;;16.20;99.90;;;;;;5058514;28;20094;-79
2021/05/17 10:32:45;;;;;;;2.72;1.88;;;15.60;99.90;;;;;;5058893;28;20053;-80
2021/05/17 10:35:17;;;;;;;3.13;1.27;;;15.40;99.90;;;;;;5059464;28;20126;-79
2021/05/17 10:37:46;;;;;;;3.88;1.52;;;15.00;99.90;;;;;;5061091;28;20091;-81
2021/05/17 10:40:34;;;;;;;4.13;1.58;;;14.80;99.90;;;;;;5050844;28;20097;-80
2021/05/17 10:43:10;;;;;;;3.22;1.75;;;14.70;99.90;;;;;;5045900;28;20107;-81
2021/05/17 10:48:35;;;;;;;5.55;1.80;;;14.80;99.90;;;;;;5041776;28;20080;-82
2021/05/17 10:51:15;;;;;;;3.92;1.83;;;14.90;99.90;;;;;;5045470;28;20053;-79
2021/05/17 10:53:54;;;;;;;4.63;1.98;;;15.10;99.90;;;;;;5041648;28;20163;-81
2021/05/17 10:56:50;;;;;;;4.18;1.65;;;15.50;99.90;;;;;;5040709;28;20049;-78
2021/05/17 11:02:14;;;;;;;18.17;4.03;;;15.80;99.90;;;;;;5063941;28;20198;-79
2021/05/17 11:04:53;;;;;;;3.40;1.58;;;16.00;99.90;;;;;;5067955;28;20056;-82
2021/05/17 11:07:31;;;;;;;2.70;1.30;;;16.20;99.90;;;;;;5072247;28;20155;-80
2021/05/17 11:10:09;;;;;;;1.50;0.95;;;16.10;99.90;;;;;;5068769;28;20459;-79
2021/05/17 11:12:56;;;;;;;2.60;0.98;;;15.90;99.90;;;;;;5068415;28;20056;-82
2021/05/17 11:15:24;;;;;;;1.27;1.05;;;15.70;99.90;;;;;;5071979;28;20052;-80
2021/05/17 11:18:20;;;;;;;3.40;1.05;;;15.60;99.90;;;;;;5066945;28;20072;-80
2021/05/17 11:20:49;;;;;;;4.28;1.70;;;15.60;99.90;;;;;;5064416;28;20101;-80
2021/05/17 11:23:17;;;;;;;3.15;1.58;;;15.40;99.90;;;;;;5063925;28;20501;-80
2021/05/17 11:26:00;;;;;;;2.05;1.30;;;15.40;99.90;;;;;;5061192;28;20106;-80
2021/05/17 11:29:05;;;;;;;3.17;2.00;;;15.30;99.90;;;;;;5063519;28;20076;-80
2021/05/17 11:31:47;;;;;;;3.80;2.28;;;15.10;99.90;;;;;;5056944;28;20114;-80
2021/05/17 11:34:21;;;;;;;1.80;1.30;;;14.90;99.90;;;;;;5044964;28;20487;-81
2021/05/17 11:36:51;;;;;;;3.97;2.25;;;14.80;99.90;;;;;;5036946;28;20054;-79
2021/05/17 11:39:20;;;;;;;2.88;1.38;;;14.60;99.90;;;;;;5053386;28;20114;-80
2021/05/17 11:41:48;;;;;;;2.15;1.60;;;14.70;99.90;;;;;;5042598;28;20053;-79
2021/05/17 11:44:17;;;;;;;2.72;2.13;;;14.50;99.90;;;;;;5041424;28;20080;-79
2021/05/17 11:46:47;;;;;;;4.88;2.67;;;14.40;99.90;;;;;;5042166;28;20080;-81
2021/05/17 11:49:15;;;;;;;5.10;2.10;;;14.40;99.90;;;;;;5040224;28;20049;-79
2021/05/17 11:51:46;;;;;;;2.17;1.88;;;14.50;99.90;;;;;;5043681;28;20060;-82
2021/05/17 11:54:13;;;;;;;2.72;2.13;;;14.60;99.90;;;;;;5039613;28;20136;-79
2021/05/17 11:56:42;;;;;;;3.90;2.13;;;14.70;99.90;;;;;;5037915;28;20053;-77
2021/05/17 11:59:12;;;;;;;2.13;1.90;;;14.80;99.90;;;;;;5041745;28;20141;-80
2021/05/17 12:01:42;;;;;;;2.90;1.88;;;15.00;99.90;;;;;;5046758;28;20049;-79
2021/05/17 12:04:14;;;;;;;3.05;2.00;;;15.10;99.90;;;;;;5042926;28;20049;-80
2021/05/17 12:06:42;;;;;;;2.47;2.13;;;15.20;99.90;;;;;;5041606;28;20050;-80
2021/05/17 12:09:27;;;;;;;5.80;2.38;;;15.20;99.90;;;;;;5039808;28;20064;-79
2021/05/17 12:11:53;;;;;;;4.55;2.67;;;15.10;99.90;;;;;;5038598;28;20536;-79
2021/05/17 12:14:22;;;;;;;3.92;2.05;;;15.00;99.90;;;;;;5040085;28;20080;-79
2021/05/17 12:17:12;;;;;;;4.47;2.30;;;15.00;99.90;;;;;;5043287;28;20053;-80
2021/05/17 12:19:47;;;;;;;5.78;2.90;;;15.10;99.90;;;;;;5037838;28;20480;-79
2021/05/17 12:22:25;;;;;;;4.75;2.70;;;15.20;99.90;;;;;;5040707;28;20486;-79
2021/05/17 12:25:06;;;;;;;5.40;3.10;;;14.80;99.90;;;;;;5041452;28;20053;-79
2021/05/17 12:27:33;;;;;;;4.53;3.28;;;14.50;99.90;;;;;;5041112;28;20053;-80
2021/05/17 12:30:09;;;;;;;6.68;3.30;;;14.10;99.90;;;;;;5039667;28;20042;-80
2021/05/17 12:32:51;;;;;;;6.25;3.28;;;14.00;99.90;;;;;;5041396;28;20691;-79
2021/05/17 12:35:27;;;;;;;6.15;3.20;;;14.30;99.90;;;;;;5039254;28;20069;-78
2021/05/17 12:38:02;;;;;;;4.55;3.50;;;14.70;99.90;;;;;;5040835;28;20077;-81
2021/05/17 12:40:35;;;;;;;3.35;2.90;;;15.10;99.90;;;;;;5036807;28;20062;-81
2021/05/17 12:43:20;;;;;;;5.88;3.38;;;15.40;99.90;;;;;;5039996;28;20072;-80
2021/05/17 12:49:15;;;;;;;7.30;3.58;;;15.50;99.90;;;;;;5038879;28;20124;-80
2021/05/17 12:51:41;;;;;;;5.28;3.35;;;15.30;99.90;;;;;;5042235;28;20049;-81
2021/05/17 12:54:14;;;;;;;7.38;3.80;;;15.00;99.90;;;;;;5040674;28;20494;-82
2021/05/17 12:56:44;;;;;;;5.50;3.70;;;15.00;99.90;;;;;;5042504;28;20046;-79
2021/05/17 12:59:19;;;;;;;6.25;4.00;;;15.00;99.90;;;;;;5041811;28;20108;-80
2021/05/17 13:01:46;;;;;;;9.20;4.40;;;15.10;99.90;;;;;;5041642;28;20132;-80
2021/05/17 13:04:23;;;;;;;7.85;4.57;;;15.10;99.90;;;;;;5040910;28;20120;-81
2021/05/17 13:07:05;;;;;;;7.72;4.43;;;15.10;99.90;;;;;;5042282;28;20054;-80
2021/05/17 13:09:34;;;;;;;5.95;4.47;;;15.20;99.90;;;;;;5042437;28;20056;-81
2021/05/17 13:12:01;;;;;;;7.40;4.40;;;15.30;99.90;;;;;;5042660;28;20053;-82
2021/05/17 13:18:08;;;;;;;7.47;4.63;;;15.80;99.90;;;;;;5039170;28;20088;-80
2021/05/17 13:20:37;;;;;;;10.40;4.65;;;15.90;99.90;;;;;;5040520;28;20096;-81
2021/05/17 13:31:46;;;;;;;8.43;5.22;;;15.30;99.90;;;;;;5045049;28;20051;-81
2021/05/17 13:34:19;;;;;;;9.90;5.40;;;15.20;99.90;;;;;;5050429;28;20072;-83
2021/05/17 13:36:45;;;;;;;10.90;5.68;;;15.20;99.90;;;;;;5045523;28;20103;-79
2021/05/17 13:39:15;;;;;;;7.63;5.72;;;15.10;99.90;;;;;;5040965;28;20049;-81
2021/05/17 13:41:42;;;;;;;9.82;6.25;;;14.90;99.90;;;;;;5040496;28;20092;-79